Time;durP1;ratioP1;P1;durP2;ratioP2;P2;SDS_P1;SDS_P2;PMS_P1;PMS_P2;Temp;Humidity;BMP_temperature;BMP_pressure;BME280_temperature;BME280_humidity;BME280_pressure;Samples;Min_cycle;Max_cycle;Signal;HPM_P1;HPM_P2
2021/03/01 00:02:16;;;;;;;24.33;13.60;;;;;;;;;;4998489;28;20288;-71
2021/03/01 00:04:43;;;;;;;23.10;13.83;;;;;;;;;;4997906;28;20220;-70
2021/03/01 00:07:10;;;;;;;23.27;14.03;;;;;;;;;;4998440;28;20219;-71
2021/03/01 00:09:37;;;;;;;23.90;12.63;;;;;;;;;;4998106;28;20732;-71
2021/03/01 00:12:04;;;;;;;24.67;12.63;;;;;;;;;;5000273;28;20243;-71
2021/03/01 00:14:31;;;;;;;20.00;13.03;;;;;;;;;;4998475;28;20228;-69
2021/03/01 00:16:59;;;;;;;20.27;13.63;;;;;;;;;;4998491;28;20241;-69
2021/03/01 00:19:27;;;;;;;23.90;13.00;;;;;;;;;;4998213;28;20228;-69
2021/03/01 00:21:54;;;;;;;21.07;13.30;;;;;;;;;;4998307;28;20620;-69
2021/03/01 00:24:21;;;;;;;24.20;13.17;;;;;;;;;;4998306;28;20320;-69
2021/03/01 00:26:48;;;;;;;21.93;14.00;;;;;;;;;;4998310;28;20240;-69
2021/03/01 00:29:15;;;;;;;18.73;12.93;;;;;;;;;;4998107;28;20240;-69
2021/03/01 00:31:57;;;;;;;19.07;13.80;;;;;;;;;;4998329;28;20208;-69
2021/03/01 00:34:26;;;;;;;18.70;12.73;;;;;;;;;;4997971;28;20255;-70
2021/03/01 00:36:53;;;;;;;18.17;13.53;;;;;;;;;;4998364;28;20216;-69
2021/03/01 00:39:20;;;;;;;24.07;13.27;;;;;;;;;;4998253;28;20320;-69
2021/03/01 00:41:47;;;;;;;21.93;13.97;;;;;;;;;;4997842;28;20653;-69
2021/03/01 00:44:14;;;;;;;25.90;14.43;;;;;;;;;;4998167;28;20243;-69
2021/03/01 00:46:42;;;;;;;22.33;14.20;;;;;;;;;;4998050;28;20220;-69
2021/03/01 00:49:09;;;;;;;21.90;13.47;;;;;;;;;;4997959;28;20208;-69
2021/03/01 00:51:37;;;;;;;21.00;14.27;;;;;;;;;;4998018;28;20687;-69
2021/03/01 00:54:05;;;;;;;20.33;13.23;;;;;;;;;;4998058;28;20215;-69
2021/03/01 00:56:32;;;;;;;25.37;13.97;;;;;;;;;;5000392;28;20213;-68
2021/03/01 00:58:59;;;;;;;20.87;14.00;;;;;;;;;;5001930;28;20240;-69
2021/03/01 01:01:26;;;;;;;24.73;13.70;;;;;;;;;;5001932;28;20284;-69
2021/03/01 01:03:53;;;;;;;21.97;14.73;;;;;;;;;;5001475;28;20213;-69
2021/03/01 01:06:20;;;;;;;23.37;15.10;;;;;;;;;;5001772;28;20213;-69
2021/03/01 01:08:48;;;;;;;26.20;14.60;;;;;;;;;;5001610;28;20304;-69
2021/03/01 01:11:15;;;;;;;26.30;15.57;;;;;;;;;;5002719;28;20201;-69
2021/03/01 01:13:42;;;;;;;26.37;15.10;;;;;;;;;;5001488;28;20213;-69
2021/03/01 01:16:09;;;;;;;26.40;14.60;;;;;;;;;;5001555;28;20229;-69
2021/03/01 01:18:36;;;;;;;21.33;14.33;;;;;;;;;;5001209;28;20291;-69
2021/03/01 01:21:04;;;;;;;24.20;15.20;;;;;;;;;;5001450;28;20239;-69
2021/03/01 01:23:31;;;;;;;21.60;14.10;;;;;;;;;;5001352;28;20291;-69
2021/03/01 01:25:59;;;;;;;21.87;14.67;;;;;;;;;;5001150;28;20652;-69
2021/03/01 01:28:26;;;;;;;27.20;15.77;;;;;;;;;;4993552;28;20240;-69
2021/03/01 01:30:53;;;;;;;23.77;15.90;;;;;;;;;;5001338;28;20239;-69
2021/03/01 01:33:21;;;;;;;23.43;14.90;;;;;;;;;;5000881;28;20696;-69
2021/03/01 01:35:48;;;;;;;21.83;13.97;;;;;;;;;;5001188;28;20221;-69
2021/03/01 01:38:15;;;;;;;25.90;15.07;;;;;;;;;;5001266;28;20295;-69
2021/03/01 01:40:42;;;;;;;24.60;15.07;;;;;;;;;;5000990;28;20739;-69
2021/03/01 01:43:10;;;;;;;21.67;15.13;;;;;;;;;;5000960;28;20220;-68
2021/03/01 01:45:37;;;;;;;24.23;14.90;;;;;;;;;;5000714;28;20255;-68
2021/03/01 01:48:05;;;;;;;26.77;15.20;;;;;;;;;;5000676;28;20673;-68
2021/03/01 01:50:33;;;;;;;21.20;14.47;;;;;;;;;;5001077;28;20204;-68
2021/03/01 01:53:01;;;;;;;22.87;14.27;;;;;;;;;;5000851;28;20209;-69
2021/03/01 01:55:29;;;;;;;23.53;13.93;;;;;;;;;;5000846;28;20229;-68
2021/03/01 01:57:56;;;;;;;24.80;13.93;;;;;;;;;;5000682;28;20235;-69
2021/03/01 02:00:37;;;;;;;26.17;14.97;;;;;;;;;;5000859;28;20264;-68
2021/03/01 02:03:08;;;;;;;21.60;14.10;;;;;;;;;;5000630;28;20205;-68
2021/03/01 02:05:36;;;;;;;23.80;14.10;;;;;;;;;;5000435;28;20229;-69
2021/03/01 02:08:06;;;;;;;22.27;13.93;;;;;;;;;;4999125;28;20293;-70
2021/03/01 02:10:36;;;;;;;22.07;14.03;;;;;;;;;;5001966;28;20259;-69
2021/03/01 02:13:07;;;;;;;23.20;14.33;;;;;;;;;;5000913;28;20240;-69
2021/03/01 02:15:40;;;;;;;20.23;13.83;;;;;;;;;;5000341;28;20787;-69
2021/03/01 02:18:08;;;;;;;25.30;14.37;;;;;;;;;;4988174;28;20215;-68
2021/03/01 02:20:40;;;;;;;26.00;13.87;;;;;;;;;;5000278;28;20229;-69
2021/03/01 02:23:10;;;;;;;26.97;14.33;;;;;;;;;;5000151;28;20292;-69
2021/03/01 02:25:38;;;;;;;23.73;14.57;;;;;;;;;;5000095;28;20303;-68
2021/03/01 02:28:07;;;;;;;24.87;14.63;;;;;;;;;;5000131;28;20252;-68
2021/03/01 02:30:37;;;;;;;23.70;14.37;;;;;;;;;;5000233;28;20237;-69
2021/03/01 02:33:08;;;;;;;24.90;14.57;;;;;;;;;;5000021;28;20216;-69
2021/03/01 02:35:37;;;;;;;26.13;14.17;;;;;;;;;;4999833;28;20235;-69
2021/03/01 02:38:07;;;;;;;22.10;13.87;;;;;;;;;;4999862;28;20239;-69
2021/03/01 02:40:35;;;;;;;22.37;14.87;;;;;;;;;;5000052;28;20312;-69
2021/03/01 02:43:04;;;;;;;24.90;15.00;;;;;;;;;;4999719;28;20201;-70
2021/03/01 02:45:31;;;;;;;22.93;13.67;;;;;;;;;;4999764;28;20260;-69
2021/03/01 02:48:00;;;;;;;24.57;14.20;;;;;;;;;;5000114;28;21519;-69
2021/03/01 02:50:27;;;;;;;26.03;14.27;;;;;;;;;;4999550;28;20559;-68
2021/03/01 02:52:55;;;;;;;24.93;14.83;;;;;;;;;;4999764;28;20236;-69
2021/03/01 02:55:23;;;;;;;22.80;14.53;;;;;;;;;;4999426;28;20783;-69
2021/03/01 02:58:07;;;;;;;26.90;15.60;;;;;;;;;;4999630;28;20212;-69
2021/03/01 03:00:34;;;;;;;25.97;14.73;;;;;;;;;;4999418;28;20264;-69
2021/03/01 03:03:02;;;;;;;28.40;16.47;;;;;;;;;;4999257;28;20300;-69
2021/03/01 03:05:29;;;;;;;24.70;15.23;;;;;;;;;;4999519;28;20264;-69
2021/03/01 03:07:56;;;;;;;22.37;14.97;;;;;;;;;;4999579;28;20292;-69
2021/03/01 03:10:23;;;;;;;20.27;14.23;;;;;;;;;;4999144;28;20271;-69
2021/03/01 03:12:51;;;;;;;21.63;14.03;;;;;;;;;;4996983;28;20212;-69
2021/03/01 03:15:20;;;;;;;21.47;14.63;;;;;;;;;;4999419;28;20260;-69
2021/03/01 03:17:49;;;;;;;22.00;14.83;;;;;;;;;;4999015;28;20668;-69
2021/03/01 03:20:16;;;;;;;20.63;13.10;;;;;;;;;;4998624;28;20237;-69
2021/03/01 03:22:43;;;;;;;21.83;13.60;;;;;;;;;;4999125;28;20244;-69
2021/03/01 03:25:11;;;;;;;18.63;13.73;;;;;;;;;;4999231;28;20224;-69
2021/03/01 03:27:38;;;;;;;22.10;13.73;;;;;;;;;;4998854;28;20640;-69
2021/03/01 03:30:07;;;;;;;24.93;14.00;;;;;;;;;;4998933;28;20243;-70
2021/03/01 03:32:35;;;;;;;22.20;13.90;;;;;;;;;;4999064;28;20295;-69
2021/03/01 03:35:04;;;;;;;21.70;14.27;;;;;;;;;;4998761;28;20228;-69
2021/03/01 03:37:33;;;;;;;25.90;14.60;;;;;;;;;;4986660;28;20316;-69
2021/03/01 03:40:01;;;;;;;27.47;14.40;;;;;;;;;;4998747;28;20271;-69
2021/03/01 03:42:28;;;;;;;23.20;14.67;;;;;;;;;;4998466;28;20736;-69
2021/03/01 03:44:57;;;;;;;23.70;13.60;;;;;;;;;;4998853;28;20283;-69
2021/03/01 03:47:25;;;;;;;21.77;13.67;;;;;;;;;;4998695;28;20288;-68
2021/03/01 03:49:54;;;;;;;23.37;15.57;;;;;;;;;;4998431;28;20256;-69
2021/03/01 03:52:23;;;;;;;27.57;14.40;;;;;;;;;;4999009;28;20634;-69
2021/03/01 03:54:52;;;;;;;26.10;14.60;;;;;;;;;;4998497;28;20290;-69
2021/03/01 03:57:23;;;;;;;20.23;13.87;;;;;;;;;;4998713;28;20263;-69
2021/03/01 03:59:51;;;;;;;21.73;13.40;;;;;;;;;;4998383;28;20271;-69
2021/03/01 04:02:18;;;;;;;22.37;13.73;;;;;;;;;;4998516;28;20209;-69
2021/03/01 04:04:46;;;;;;;23.60;14.27;;;;;;;;;;4998326;28;20232;-69
2021/03/01 04:07:14;;;;;;;21.90;13.50;;;;;;;;;;4998321;28;20216;-69
2021/03/01 04:09:42;;;;;;;22.67;14.00;;;;;;;;;;4998185;28;20295;-70
2021/03/01 04:12:10;;;;;;;22.00;14.37;;;;;;;;;;5000622;28;20284;-71
2021/03/01 04:14:38;;;;;;;20.87;13.27;;;;;;;;;;4998276;28;20283;-71
2021/03/01 04:17:07;;;;;;;25.50;14.00;;;;;;;;;;4998409;28;20259;-71
2021/03/01 04:19:36;;;;;;;24.70;16.60;;;;;;;;;;4998105;28;20296;-70
2021/03/01 04:22:05;;;;;;;26.00;15.20;;;;;;;;;;4998490;28;20296;-68
2021/03/01 04:24:34;;;;;;;22.93;14.93;;;;;;;;;;4998168;28;20614;-71
2021/03/01 04:27:02;;;;;;;25.73;14.33;;;;;;;;;;4998209;28;20219;-71
2021/03/01 04:29:30;;;;;;;22.73;14.33;;;;;;;;;;4998520;28;20205;-70
2021/03/01 04:31:57;;;;;;;20.50;14.07;;;;;;;;;;5001537;28;20251;-71
2021/03/01 04:34:25;;;;;;;26.83;15.13;;;;;;;;;;5002149;28;20227;-70
2021/03/01 04:36:53;;;;;;;21.60;15.07;;;;;;;;;;5002219;28;20247;-70
2021/03/01 04:39:20;;;;;;;21.20;14.53;;;;;;;;;;5002395;28;20216;-70
2021/03/01 04:41:48;;;;;;;23.60;14.50;;;;;;;;;;5001791;28;20311;-70
2021/03/01 04:44:15;;;;;;;23.63;14.53;;;;;;;;;;5002671;28;20315;-70
2021/03/01 04:46:43;;;;;;;25.43;14.93;;;;;;;;;;5001761;28;20665;-70
2021/03/01 04:49:11;;;;;;;24.90;14.63;;;;;;;;;;5001937;28;20208;-70
2021/03/01 04:51:38;;;;;;;25.70;14.67;;;;;;;;;;5002125;28;20738;-70
2021/03/01 04:54:05;;;;;;;22.07;13.80;;;;;;;;;;5001891;28;20212;-70
2021/03/01 04:56:33;;;;;;;23.03;13.67;;;;;;;;;;5001706;28;20697;-70
2021/03/01 04:59:01;;;;;;;20.20;12.93;;;;;;;;;;5001799;28;20237;-71
2021/03/01 05:01:28;;;;;;;26.23;14.17;;;;;;;;;;5001833;28;20233;-70
2021/03/01 05:03:56;;;;;;;22.63;13.97;;;;;;;;;;5001640;28;20209;-71
2021/03/01 05:06:23;;;;;;;28.27;13.67;;;;;;;;;;5002127;28;20291;-70
2021/03/01 05:08:50;;;;;;;22.17;13.70;;;;;;;;;;5001427;28;20763;-70
2021/03/01 05:11:28;;;;;;;17.23;12.83;;;;;;;;;;5004166;28;20239;-70
2021/03/01 05:13:55;;;;;;;20.07;13.87;;;;;;;;;;5001418;28;20244;-69
2021/03/01 05:16:24;;;;;;;24.47;14.17;;;;;;;;;;5001478;28;20237;-70
2021/03/01 05:18:52;;;;;;;22.17;13.37;;;;;;;;;;5001023;28;20209;-70
2021/03/01 05:21:19;;;;;;;26.10;14.27;;;;;;;;;;5001710;28;20320;-69
2021/03/01 05:23:46;;;;;;;20.17;14.43;;;;;;;;;;5001491;28;20248;-70
2021/03/01 05:26:13;;;;;;;24.23;13.57;;;;;;;;;;5001375;28;20293;-70
2021/03/01 05:28:40;;;;;;;19.33;13.27;;;;;;;;;;5001421;28;20212;-69
2021/03/01 05:31:08;;;;;;;19.13;13.93;;;;;;;;;;5001875;28;20240;-70
2021/03/01 05:33:36;;;;;;;21.17;13.47;;;;;;;;;;5001064;28;20236;-70
2021/03/01 05:36:03;;;;;;;22.77;13.67;;;;;;;;;;5001269;28;20256;-70
2021/03/01 05:38:30;;;;;;;23.30;13.57;;;;;;;;;;5001214;28;20244;-70
2021/03/01 05:40:57;;;;;;;23.00;13.27;;;;;;;;;;5000954;28;20275;-70
2021/03/01 05:43:26;;;;;;;22.90;15.10;;;;;;;;;;5000897;28;20263;-70
2021/03/01 05:45:54;;;;;;;23.77;14.87;;;;;;;;;;5001104;28;20229;-70
2021/03/01 05:48:22;;;;;;;20.10;14.10;;;;;;;;;;5000836;28;20217;-70
2021/03/01 05:50:54;;;;;;;21.73;14.03;;;;;;;;;;5001098;28;20205;-70
2021/03/01 05:53:24;;;;;;;20.90;13.53;;;;;;;;;;5001014;28;20237;-70
2021/03/01 05:55:52;;;;;;;23.27;13.43;;;;;;;;;;5000777;28;20767;-70
2021/03/01 05:58:19;;;;;;;22.57;14.13;;;;;;;;;;5000833;28;20236;-71
2021/03/01 06:00:46;;;;;;;20.80;13.20;;;;;;;;;;5000798;28;20264;-71
2021/03/01 06:03:14;;;;;;;22.03;14.57;;;;;;;;;;5000448;28;20304;-70
2021/03/01 06:05:41;;;;;;;19.37;13.50;;;;;;;;;;5000699;28;20233;-71
2021/03/01 06:08:10;;;;;;;20.83;13.37;;;;;;;;;;5000645;28;20719;-71
2021/03/01 06:10:37;;;;;;;19.90;12.20;;;;;;;;;;5002339;28;20205;-70
2021/03/01 06:13:05;;;;;;;20.43;12.87;;;;;;;;;;5000793;28;20200;-70
2021/03/01 06:15:34;;;;;;;20.40;13.47;;;;;;;;;;5000361;28;20308;-70
2021/03/01 06:18:06;;;;;;;22.03;13.00;;;;;;;;;;5000265;28;20255;-71
2021/03/01 06:20:33;;;;;;;20.03;13.20;;;;;;;;;;5000191;28;20645;-70
2021/03/01 06:23:00;;;;;;;24.30;13.77;;;;;;;;;;5000489;28;20212;-71
2021/03/01 06:25:28;;;;;;;23.23;13.07;;;;;;;;;;5000076;28;20331;-70
2021/03/01 06:27:56;;;;;;;23.53;13.80;;;;;;;;;;5000030;28;20665;-70
2021/03/01 06:30:24;;;;;;;20.27;13.20;;;;;;;;;;5000273;28;20232;-70
2021/03/01 06:33:04;;;;;;;19.13;12.67;;;;;;;;;;4999891;28;20291;-70
2021/03/01 06:35:32;;;;;;;18.50;12.10;;;;;;;;;;5000012;28;20231;-71
2021/03/01 06:38:19;;;;;;;22.10;12.87;;;;;;;;;;5000201;28;20205;-71
2021/03/01 06:41:05;;;;;;;34.87;17.47;;;;;;;;;;4999874;28;20331;-70
2021/03/01 06:43:32;;;;;;;19.17;12.67;;;;;;;;;;4999736;28;20645;-71
2021/03/01 06:46:06;;;;;;;24.23;13.40;;;;;;;;;;4999834;28;20265;-70
2021/03/01 06:48:33;;;;;;;18.40;12.50;;;;;;;;;;4999433;28;20263;-70
2021/03/01 06:51:00;;;;;;;19.23;12.80;;;;;;;;;;4999888;28;20216;-70
2021/03/01 06:53:27;;;;;;;19.87;12.60;;;;;;;;;;4999080;28;20236;-70
2021/03/01 06:55:58;;;;;;;22.87;14.10;;;;;;;;;;4999550;28;20320;-70
2021/03/01 06:58:26;;;;;;;21.87;13.23;;;;;;;;;;4999612;28;20211;-70
2021/03/01 07:01:04;;;;;;;17.30;11.80;;;;;;;;;;4999595;28;20592;-70
2021/03/01 07:03:32;;;;;;;21.90;13.10;;;;;;;;;;4999578;28;20212;-70
2021/03/01 07:06:00;;;;;;;23.77;13.60;;;;;;;;;;4999420;28;20298;-70
2021/03/01 07:08:34;;;;;;;21.33;14.00;;;;;;;;;;4999167;28;20692;-70
2021/03/01 07:11:03;;;;;;;23.80;13.47;;;;;;;;;;5001641;28;20208;-70
2021/03/01 07:13:31;;;;;;;35.10;16.33;;;;;;;;;;4999240;28;20622;-70
2021/03/01 07:15:58;;;;;;;19.27;13.10;;;;;;;;;;4999060;28;20281;-70
2021/03/01 07:18:27;;;;;;;24.20;13.37;;;;;;;;;;4999113;28;21132;-70
2021/03/01 07:20:54;;;;;;;25.73;13.00;;;;;;;;;;4999004;28;20237;-70
2021/03/01 07:23:21;;;;;;;21.07;13.03;;;;;;;;;;4999446;28;20304;-70
2021/03/01 07:25:50;;;;;;;20.63;12.97;;;;;;;;;;4998960;28;20232;-70
2021/03/01 07:28:19;;;;;;;29.20;14.40;;;;;;;;;;4999112;28;20240;-70
2021/03/01 07:30:48;;;;;;;22.03;12.90;;;;;;;;;;4999148;28;20232;-70
2021/03/01 07:33:15;;;;;;;22.83;13.20;;;;;;;;;;4998678;28;20252;-70
2021/03/01 07:35:43;;;;;;;27.27;13.80;;;;;;;;;;4998789;28;20228;-70
2021/03/01 07:38:10;;;;;;;23.87;13.53;;;;;;;;;;4998962;28;20213;-70
2021/03/01 07:40:38;;;;;;;19.53;13.43;;;;;;;;;;4996983;28;20670;-68
2021/03/01 07:43:06;;;;;;;24.43;13.63;;;;;;;;;;4998434;28;20204;-67
2021/03/01 07:45:35;;;;;;;29.60;14.83;;;;;;;;;;4998828;28;20237;-69
2021/03/01 07:48:11;;;;;;;26.40;14.83;;;;;;;;;;4998444;28;20205;-69
2021/03/01 07:50:39;;;;;;;28.53;14.27;;;;;;;;;;4998902;28;20205;-69
2021/03/01 07:53:27;;;;;;;21.47;14.33;;;;;;;;;;4998909;28;20215;-68
2021/03/01 07:56:31;;;;;;;25.97;15.10;;;;;;;;;;4998396;28;20232;-68
2021/03/01 07:58:59;;;;;;;24.97;13.90;;;;;;;;;;4997976;28;20261;-68
2021/03/01 08:01:28;;;;;;;30.37;15.87;;;;;;;;;;4998338;28;20258;-68
2021/03/01 08:03:55;;;;;;;31.67;17.83;;;;;;;;;;4998025;28;20216;-68
2021/03/01 08:06:23;;;;;;;27.10;15.60;;;;;;;;;;4998330;28;20220;-68
2021/03/01 08:08:51;;;;;;;26.20;14.03;;;;;;;;;;4998190;28;20240;-68
2021/03/01 08:11:36;;;;;;;26.00;15.80;;;;;;;;;;5002148;28;21100;-69
2021/03/01 08:14:03;;;;;;;31.93;16.30;;;;;;;;;;4997421;28;20216;-70
2021/03/01 08:16:31;;;;;;;33.00;15.87;;;;;;;;;;5001788;28;20248;-67
2021/03/01 08:18:59;;;;;;;26.53;15.07;;;;;;;;;;5000614;28;20205;-70
2021/03/01 08:21:26;;;;;;;30.50;16.03;;;;;;;;;;5006074;28;20312;-71
2021/03/01 08:23:53;;;;;;;28.03;15.93;;;;;;;;;;5000900;28;20308;-72
2021/03/01 08:26:31;;;;;;;22.37;13.97;;;;;;;;;;4995418;28;20208;-71
2021/03/01 08:28:59;;;;;;;24.17;15.07;;;;;;;;;;4991325;28;20213;-71
2021/03/01 08:31:39;;;;;;;23.33;15.83;;;;;;;;;;4996676;28;20239;-71
2021/03/01 08:34:40;;;;;;;25.90;15.87;;;;;;;;;;4996856;28;20223;-71
2021/03/01 08:37:07;;;;;;;27.83;16.10;;;;;;;;;;4997010;28;20280;-73
2021/03/01 08:40:00;;;;;;;28.97;15.87;;;;;;;;;;4997000;28;21405;-73
2021/03/01 08:42:46;;;;;;;22.27;14.40;;;;;;;;;;4994956;28;20252;-73
2021/03/01 08:45:19;;;;;;;29.43;15.93;;;;;;;;;;4996354;28;20224;-73
2021/03/01 08:47:50;;;;;;;26.07;16.27;;;;;;;;;;4993190;28;20300;-73
2021/03/01 08:50:21;;;;;;;33.70;16.63;;;;;;;;;;4993369;28;20209;-72
2021/03/01 08:53:07;;;;;;;25.60;16.13;;;;;;;;;;4993859;28;20209;-73
2021/03/01 08:55:34;;;;;;;34.70;18.27;;;;;;;;;;4993467;28;20233;-73
2021/03/01 08:58:03;;;;;;;33.10;17.73;;;;;;;;;;4993648;28;20206;-77
2021/03/01 09:00:31;;;;;;;29.20;17.23;;;;;;;;;;4997057;28;20239;-77
2021/03/01 09:03:10;;;;;;;26.47;16.97;;;;;;;;;;4996262;28;20244;-77
2021/03/01 09:05:37;;;;;;;25.83;16.67;;;;;;;;;;4996138;28;20311;-77
2021/03/01 09:08:05;;;;;;;30.70;16.00;;;;;;;;;;4997304;28;20236;-76
2021/03/01 09:10:40;;;;;;;28.63;16.97;;;;;;;;;;4996835;28;20216;-77
2021/03/01 09:13:08;;;;;;;25.50;16.13;;;;;;;;;;4996368;28;20211;-77
2021/03/01 09:15:36;;;;;;;23.77;15.27;;;;;;;;;;4996976;28;20256;-75
2021/03/01 09:18:05;;;;;;;28.90;16.03;;;;;;;;;;4998376;28;20207;-70
2021/03/01 09:20:39;;;;;;;29.27;16.80;;;;;;;;;;5000004;28;20235;-72
2021/03/01 09:23:08;;;;;;;26.90;16.47;;;;;;;;;;4999442;28;20208;-72
2021/03/01 09:25:35;;;;;;;29.73;16.30;;;;;;;;;;4998799;28;20224;-72
2021/03/01 09:28:03;;;;;;;26.73;16.90;;;;;;;;;;4999463;28;20205;-72
2021/03/01 09:30:31;;;;;;;25.37;16.87;;;;;;;;;;4999774;28;20288;-71
2021/03/01 09:32:59;;;;;;;29.43;16.97;;;;;;;;;;4998450;28;20205;-72
2021/03/01 09:35:27;;;;;;;29.20;17.37;;;;;;;;;;4991987;28;20376;-72
2021/03/01 09:38:03;;;;;;;33.37;17.50;;;;;;;;;;4988495;28;20572;-72
2021/03/01 09:40:31;;;;;;;26.93;16.60;;;;;;;;;;4998970;28;20228;-71
2021/03/01 09:43:03;;;;;;;27.23;16.60;;;;;;;;;;5000279;28;20232;-71
2021/03/01 09:45:31;;;;;;;28.70;16.73;;;;;;;;;;4996751;28;20330;-71
2021/03/01 09:48:00;;;;;;;30.27;17.37;;;;;;;;;;4998061;28;20287;-70
2021/03/01 09:50:28;;;;;;;25.17;15.67;;;;;;;;;;4999195;28;20205;-70
2021/03/01 09:52:56;;;;;;;24.80;16.50;;;;;;;;;;4999085;28;20201;-72
2021/03/01 09:55:24;;;;;;;30.70;17.13;;;;;;;;;;4999724;28;20772;-71
2021/03/01 09:57:52;;;;;;;27.43;15.43;;;;;;;;;;4999387;28;20287;-71
2021/03/01 10:00:19;;;;;;;29.33;16.27;;;;;;;;;;5000015;28;20247;-71
2021/03/01 10:02:53;;;;;;;28.53;16.70;;;;;;;;;;4999178;28;20288;-70
2021/03/01 10:05:21;;;;;;;28.13;16.90;;;;;;;;;;4997313;28;20231;-69
2021/03/01 10:07:53;;;;;;;27.90;16.90;;;;;;;;;;4998432;28;20700;-70
2021/03/01 10:10:21;;;;;;;28.40;16.87;;;;;;;;;;4999954;28;20279;-72
2021/03/01 10:12:50;;;;;;;33.10;17.53;;;;;;;;;;4999241;28;20201;-71
2021/03/01 10:15:19;;;;;;;30.53;17.73;;;;;;;;;;4999267;28;20224;-71
2021/03/01 10:17:46;;;;;;;26.73;15.93;;;;;;;;;;4998317;28;20205;-70
2021/03/01 10:20:15;;;;;;;24.53;16.30;;;;;;;;;;4999785;28;20291;-71
2021/03/01 10:22:59;;;;;;;25.77;16.27;;;;;;;;;;4999251;28;20229;-72
2021/03/01 10:25:29;;;;;;;23.10;16.03;;;;;;;;;;4999906;28;20264;-72
2021/03/01 10:27:57;;;;;;;29.73;16.03;;;;;;;;;;4998653;28;20688;-73
2021/03/01 10:30:25;;;;;;;30.30;16.50;;;;;;;;;;4999722;28;20288;-73
2021/03/01 10:33:02;;;;;;;25.03;15.83;;;;;;;;;;4999316;28;20745;-72
2021/03/01 10:35:30;;;;;;;33.10;16.23;;;;;;;;;;4999876;28;20252;-70
2021/03/01 10:38:01;;;;;;;26.20;16.50;;;;;;;;;;4999858;28;20239;-71
2021/03/01 10:40:29;;;;;;;21.80;15.30;;;;;;;;;;4999712;28;20209;-70
2021/03/01 10:42:57;;;;;;;27.03;15.53;;;;;;;;;;5000984;28;20255;-71
2021/03/01 10:45:24;;;;;;;27.90;16.83;;;;;;;;;;4998018;28;20224;-71
2021/03/01 10:48:01;;;;;;;23.67;16.13;;;;;;;;;;4998464;28;20236;-71
2021/03/01 10:50:28;;;;;;;30.47;16.53;;;;;;;;;;4999279;28;20575;-71
2021/03/01 10:52:55;;;;;;;24.20;15.90;;;;;;;;;;4999484;28;20260;-70
2021/03/01 10:55:22;;;;;;;21.57;15.43;;;;;;;;;;4999403;28;20320;-70
2021/03/01 10:57:50;;;;;;;21.73;15.53;;;;;;;;;;4999516;28;20211;-70
2021/03/01 11:00:19;;;;;;;21.93;16.07;;;;;;;;;;4999270;28;20241;-71
2021/03/01 11:02:46;;;;;;;30.30;15.90;;;;;;;;;;4998980;28;20744;-70
2021/03/01 11:05:13;;;;;;;25.47;16.63;;;;;;;;;;4998930;28;20228;-71
2021/03/01 11:07:40;;;;;;;24.93;15.37;;;;;;;;;;4999402;28;20342;-70
2021/03/01 11:10:07;;;;;;;24.00;15.77;;;;;;;;;;4998168;28;21008;-70
2021/03/01 11:12:35;;;;;;;28.77;15.60;;;;;;;;;;4998361;28;20731;-70
2021/03/01 11:15:03;;;;;;;22.93;13.93;;;;;;;;;;4998230;28;20254;-70
2021/03/01 11:17:31;;;;;;;24.43;14.37;;;;;;;;;;4998234;28;20684;-71
2021/03/01 11:19:58;;;;;;;24.50;14.23;;;;;;;;;;4997926;28;20209;-70
2021/03/01 11:22:25;;;;;;;24.87;14.83;;;;;;;;;;4997644;28;20236;-70
2021/03/01 11:24:52;;;;;;;23.03;14.70;;;;;;;;;;4997983;28;20311;-70
2021/03/01 11:27:19;;;;;;;23.77;14.50;;;;;;;;;;4998119;28;20302;-70
2021/03/01 11:29:46;;;;;;;23.87;14.93;;;;;;;;;;4998064;28;20217;-70
2021/03/01 11:32:13;;;;;;;25.20;14.33;;;;;;;;;;4997887;28;20665;-70
2021/03/01 11:34:42;;;;;;;22.50;15.10;;;;;;;;;;4996948;28;20320;-70
2021/03/01 11:37:09;;;;;;;25.13;15.03;;;;;;;;;;4997873;28;20708;-70
2021/03/01 11:39:36;;;;;;;28.20;14.80;;;;;;;;;;4996679;28;20576;-70
2021/03/01 11:42:05;;;;;;;21.63;14.73;;;;;;;;;;5005444;28;20232;-70
2021/03/01 11:44:32;;;;;;;25.90;15.37;;;;;;;;;;4996714;28;20256;-70
2021/03/01 11:46:59;;;;;;;24.80;15.13;;;;;;;;;;4997272;28;20213;-69
2021/03/01 11:49:26;;;;;;;23.83;14.80;;;;;;;;;;4989364;28;20213;-70
2021/03/01 11:51:54;;;;;;;23.73;15.10;;;;;;;;;;4997712;28;20243;-69
2021/03/01 11:54:22;;;;;;;32.27;15.63;;;;;;;;;;4997300;28;20267;-70
2021/03/01 11:56:49;;;;;;;22.70;15.57;;;;;;;;;;4997647;28;20307;-70
2021/03/01 11:59:16;;;;;;;22.20;14.43;;;;;;;;;;4997797;28;20280;-70
2021/03/01 12:01:43;;;;;;;23.40;14.83;;;;;;;;;;4997575;28;20271;-69
2021/03/01 12:04:10;;;;;;;23.37;14.07;;;;;;;;;;4996507;28;20275;-69
2021/03/01 12:06:37;;;;;;;25.83;14.30;;;;;;;;;;4993301;28;20201;-70
2021/03/01 12:09:06;;;;;;;23.70;14.27;;;;;;;;;;4964272;28;943762;-69
2021/03/01 12:11:33;;;;;;;20.03;13.37;;;;;;;;;;4997493;28;20655;-69
2021/03/01 12:14:00;;;;;;;17.93;12.77;;;;;;;;;;4998121;28;20232;-69
2021/03/01 12:16:27;;;;;;;23.50;13.07;;;;;;;;;;4997732;28;20296;-71
2021/03/01 12:18:54;;;;;;;22.77;11.93;;;;;;;;;;4997421;28;20660;-71
2021/03/01 12:21:21;;;;;;;20.40;11.90;;;;;;;;;;4997588;28;20251;-70
2021/03/01 12:23:48;;;;;;;19.83;12.87;;;;;;;;;;4997929;28;20237;-70
2021/03/01 12:26:16;;;;;;;21.40;13.13;;;;;;;;;;4997465;28;20767;-70
2021/03/01 12:28:43;;;;;;;26.20;12.67;;;;;;;;;;4997597;28;20228;-69
2021/03/01 12:31:10;;;;;;;20.97;12.80;;;;;;;;;;4996689;28;20197;-68
2021/03/01 12:33:53;;;;;;;19.10;11.00;;;;;;;;;;4997737;28;20204;-68
2021/03/01 12:36:20;;;;;;;41.73;19.63;;;;;;;;;;5005649;28;20204;-68
2021/03/01 12:38:47;;;;;;;22.37;14.40;;;;;;;;;;4998800;28;20208;-69
2021/03/01 12:41:14;;;;;;;26.13;12.27;;;;;;;;;;5000054;28;20311;-69
2021/03/01 12:43:42;;;;;;;20.73;11.97;;;;;;;;;;4999019;28;20213;-69
2021/03/01 12:46:09;;;;;;;23.30;11.73;;;;;;;;;;4997331;28;20315;-69
2021/03/01 12:48:36;;;;;;;20.00;10.57;;;;;;;;;;4997454;28;20657;-70
2021/03/01 12:51:07;;;;;;;17.17;10.80;;;;;;;;;;4998121;28;20213;-68
2021/03/01 12:53:34;;;;;;;19.03;10.90;;;;;;;;;;5000515;28;20660;-70
2021/03/01 12:56:02;;;;;;;24.87;11.17;;;;;;;;;;5001532;28;20232;-70
2021/03/01 12:58:29;;;;;;;21.83;11.10;;;;;;;;;;5001784;28;20300;-68
2021/03/01 13:00:57;;;;;;;24.07;11.93;;;;;;;;;;5001623;28;20292;-69
2021/03/01 13:03:37;;;;;;;19.10;9.97;;;;;;;;;;5001266;28;20681;-69
2021/03/01 13:06:05;;;;;;;23.20;10.50;;;;;;;;;;5001554;28;20232;-68
2021/03/01 13:08:32;;;;;;;18.30;9.77;;;;;;;;;;5001121;28;20671;-69
2021/03/01 13:10:59;;;;;;;16.90;9.37;;;;;;;;;;5001414;28;20208;-68
2021/03/01 13:13:26;;;;;;;16.10;8.47;;;;;;;;;;5001497;28;20212;-69
2021/03/01 13:15:53;;;;;;;13.50;6.87;;;;;;;;;;5001125;28;20268;-68
2021/03/01 13:18:21;;;;;;;17.13;9.87;;;;;;;;;;5000996;28;20292;-69
2021/03/01 13:20:50;;;;;;;11.10;7.47;;;;;;;;;;5001196;28;20696;-69
2021/03/01 13:23:17;;;;;;;13.47;6.63;;;;;;;;;;5001009;28;20264;-69
2021/03/01 13:25:44;;;;;;;10.73;5.80;;;;;;;;;;5001324;28;20292;-69
2021/03/01 13:28:11;;;;;;;8.67;5.03;;;;;;;;;;5000819;28;20571;-69
2021/03/01 13:30:39;;;;;;;10.17;4.83;;;;;;;;;;5001159;28;20217;-69
2021/03/01 13:33:07;;;;;;;9.17;5.20;;;;;;;;;;5000907;28;20224;-69
2021/03/01 13:35:35;;;;;;;10.33;5.10;;;;;;;;;;4999710;28;20252;-69
2021/03/01 13:38:02;;;;;;;11.73;5.73;;;;;;;;;;4987728;28;20639;-69
2021/03/01 13:40:31;;;;;;;13.63;5.57;;;;;;;;;;5001431;28;20216;-68
2021/03/01 13:42:58;;;;;;;10.30;4.80;;;;;;;;;;5009717;28;20264;-69
2021/03/01 13:45:28;;;;;;;11.03;4.20;;;;;;;;;;5000816;28;20256;-70
2021/03/01 13:47:55;;;;;;;11.10;4.10;;;;;;;;;;5001024;28;20263;-70
2021/03/01 13:50:22;;;;;;;7.27;4.03;;;;;;;;;;5000717;28;20263;-69
2021/03/01 13:52:50;;;;;;;9.73;4.27;;;;;;;;;;5001197;28;20236;-69
2021/03/01 13:55:17;;;;;;;10.33;4.17;;;;;;;;;;5000848;28;20320;-69
2021/03/01 13:57:45;;;;;;;8.07;4.07;;;;;;;;;;5000601;28;20205;-70
2021/03/01 14:00:13;;;;;;;8.30;3.93;;;;;;;;;;5000858;28;20209;-70
2021/03/01 14:02:40;;;;;;;9.17;3.77;;;;;;;;;;5000406;28;20225;-69
2021/03/01 14:05:09;;;;;;;7.13;3.77;;;;;;;;;;5000448;28;20316;-69
2021/03/01 14:07:36;;;;;;;8.93;3.90;;;;;;;;;;5000774;28;20271;-69
2021/03/01 14:10:06;;;;;;;8.33;3.30;;;;;;;;;;5000334;28;20619;-69
2021/03/01 14:12:33;;;;;;;8.57;3.40;;;;;;;;;;5000236;28;20227;-69
2021/03/01 14:15:00;;;;;;;9.30;4.20;;;;;;;;;;5000652;28;20316;-69
2021/03/01 14:17:27;;;;;;;13.60;3.83;;;;;;;;;;4992659;28;20689;-70
2021/03/01 14:19:58;;;;;;;10.83;4.00;;;;;;;;;;5000664;28;20216;-70
2021/03/01 14:22:26;;;;;;;9.70;4.50;;;;;;;;;;5000364;28;20289;-69
2021/03/01 14:24:53;;;;;;;10.43;3.53;;;;;;;;;;5000478;28;20268;-69
2021/03/01 14:27:21;;;;;;;7.97;3.37;;;;;;;;;;5000394;28;20205;-69
2021/03/01 14:29:48;;;;;;;10.77;4.00;;;;;;;;;;5000474;28;20295;-69